Time;durP1;ratioP1;P1;durP2;ratioP2;P2;SDS_P1;SDS_P2;PMS_P1;PMS_P2;Temp;Humidity;BMP_temperature;BMP_pressure;BME280_temperature;BME280_humidity;BME280_pressure;Samples;Min_cycle;Max_cycle;Signal;HPM_P1;HPM_P2
2022/03/04 00:02:12;;;;;;;12.47;4.20;;;1.00;1.00;;;;;;5053315;28;20191;-75
2022/03/04 00:04:37;;;;;;;5.07;3.77;;;1.10;1.00;;;;;;5055310;28;20643;-74
2022/03/04 00:07:04;;;;;;;5.67;5.13;;;1.00;1.00;;;;;;5043296;28;20266;-75
2022/03/04 00:09:31;;;;;;;6.38;4.50;;;0.90;1.00;;;;;;5034921;28;20170;-67
2022/03/04 00:11:57;;;;;;;4.60;3.85;;;0.90;1.00;;;;;;5044617;28;20321;-69
2022/03/04 00:14:24;;;;;;;6.03;4.53;;;0.90;1.00;;;;;;5055583;28;20201;-76
2022/03/04 00:16:50;;;;;;;6.00;4.03;;;1.00;1.00;;;;;;5037722;28;20202;-66
2022/03/04 00:19:16;;;;;;;11.13;4.57;;;1.10;1.00;;;;;;5042431;28;20183;-74
2022/03/04 00:21:47;;;;;;;8.03;4.03;;;1.30;1.00;;;;;;5054786;28;20456;-76
2022/03/04 00:24:13;;;;;;;7.37;4.47;;;1.40;1.00;;;;;;5046559;28;20174;-67
2022/03/04 00:26:39;;;;;;;7.77;4.30;;;1.50;1.00;;;;;;5036251;28;20842;-66
2022/03/04 00:29:06;;;;;;;7.23;4.33;;;1.50;1.00;;;;;;5034670;28;20168;-75
2022/03/04 00:31:33;;;;;;;7.03;3.80;;;1.50;1.00;;;;;;5039810;28;20441;-76
2022/03/04 00:33:59;;;;;;;10.97;4.90;;;1.50;1.00;;;;;;5055227;28;20500;-66
2022/03/04 00:36:26;;;;;;;8.97;3.83;;;1.60;1.00;;;;;;5051697;28;20417;-76
2022/03/04 00:38:53;;;;;;;5.57;3.70;;;1.60;1.00;;;;;;5033769;28;20399;-72
2022/03/04 00:41:21;;;;;;;6.80;3.43;;;1.60;1.00;;;;;;5035816;28;21048;-66
2022/03/04 00:43:48;;;;;;;7.70;4.70;;;1.60;1.00;;;;;;5055079;28;20455;-76
2022/03/04 00:46:15;;;;;;;12.03;4.87;;;1.60;1.00;;;;;;5054350;28;20413;-67
2022/03/04 00:48:42;;;;;;;21.57;4.90;;;1.60;1.00;;;;;;5032760;28;20406;-67
2022/03/04 00:51:08;;;;;;;6.57;3.85;;;1.30;1.00;;;;;;5034665;28;20445;-76
2022/03/04 00:53:34;;;;;;;14.17;4.23;;;1.20;1.00;;;;;;5053520;28;20171;-76
2022/03/04 00:56:00;;;;;;;6.87;4.07;;;1.30;1.00;;;;;;5054870;28;20401;-67
2022/03/04 00:58:26;;;;;;;11.73;3.97;;;1.30;1.00;;;;;;5035576;28;20262;-71
2022/03/04 01:00:52;;;;;;;7.57;4.43;;;1.30;1.00;;;;;;5032282;28;20909;-67
2022/03/04 01:03:17;;;;;;;14.70;5.20;;;1.20;1.00;;;;;;5046758;28;20172;-66
2022/03/04 01:05:43;;;;;;;14.53;4.30;;;1.10;1.00;;;;;;5033496;28;20168;-76
2022/03/04 01:08:09;;;;;;;4.83;4.30;;;1.10;1.00;;;;;;5034579;28;20164;-66
2022/03/04 01:10:35;;;;;;;5.33;3.50;;;1.10;1.00;;;;;;5049592;28;20183;-76
2022/03/04 01:13:01;;;;;;;13.57;4.20;;;1.00;1.00;;;;;;5054445;28;20405;-76
2022/03/04 01:15:27;;;;;;;9.87;4.23;;;1.00;1.00;;;;;;5039788;28;20437;-76
2022/03/04 01:17:53;;;;;;;4.13;3.60;;;1.00;1.00;;;;;;5034039;28;20179;-76
2022/03/04 01:20:18;;;;;;;8.17;3.30;;;0.90;1.00;;;;;;5045487;28;20453;-66
2022/03/04 01:22:44;;;;;;;20.37;4.00;;;0.80;1.00;;;;;;5054116;28;20590;-76
2022/03/04 01:25:11;;;;;;;9.07;4.53;;;0.80;1.00;;;;;;5042200;28;20776;-66
2022/03/04 01:27:37;;;;;;;8.15;3.03;;;0.70;1.00;;;;;;5034334;28;20160;-76
2022/03/04 01:30:08;;;;;;;14.90;3.83;;;0.70;1.00;;;;;;5042137;28;20171;-76
2022/03/04 01:32:34;;;;;;;25.58;4.85;;;0.60;1.00;;;;;;5052739;28;20468;-75
2022/03/04 01:35:00;;;;;;;9.73;3.70;;;0.70;1.00;;;;;;5045691;28;20198;-76
2022/03/04 01:37:25;;;;;;;12.80;3.77;;;0.80;1.00;;;;;;5033278;28;20486;-67
2022/03/04 01:39:51;;;;;;;6.83;4.27;;;0.90;1.00;;;;;;5038936;28;20217;-66
2022/03/04 01:42:17;;;;;;;12.07;3.90;;;1.00;1.00;;;;;;5053934;28;20190;-76
2022/03/04 01:44:43;;;;;;;6.77;3.50;;;1.00;1.00;;;;;;5049392;28;20452;-76
2022/03/04 01:47:09;;;;;;;8.40;3.67;;;1.00;1.00;;;;;;5033963;28;20207;-68
2022/03/04 01:49:35;;;;;;;5.57;3.70;;;1.00;1.00;;;;;;5035106;28;20282;-67
2022/03/04 01:52:01;;;;;;;5.80;4.10;;;0.80;1.00;;;;;;5053603;28;20237;-75
2022/03/04 01:54:27;;;;;;;17.23;3.90;;;0.80;1.00;;;;;;5052713;28;20401;-72
2022/03/04 01:56:52;;;;;;;8.27;3.93;;;0.80;1.00;;;;;;5032822;28;20667;-73
2022/03/04 01:59:18;;;;;;;13.97;3.43;;;0.80;1.00;;;;;;5032754;28;20199;-67
2022/03/04 02:01:44;;;;;;;4.60;3.00;;;0.80;1.00;;;;;;5051934;28;20211;-66
2022/03/04 02:04:09;;;;;;;9.03;3.77;;;0.70;1.00;;;;;;5052007;28;20194;-67
2022/03/04 02:06:35;;;;;;;5.67;4.20;;;0.50;1.00;;;;;;5036246;28;20632;-67
2022/03/04 02:09:02;;;;;;;7.10;3.33;;;0.40;1.00;;;;;;5032724;28;20210;-66
2022/03/04 02:11:27;;;;;;;4.35;3.28;;;0.40;1.00;;;;;;5036618;28;20451;-76
2022/03/04 02:13:53;;;;;;;6.67;3.50;;;0.60;1.00;;;;;;5032819;28;20182;-72
2022/03/04 02:16:42;;;;;;;5.17;3.23;;;0.70;1.00;;;;;;5033588;28;20203;-67
2022/03/04 02:19:08;;;;;;;10.07;3.07;;;0.70;1.00;;;;;;5044744;28;20206;-76
2022/03/04 02:21:34;;;;;;;8.20;3.77;;;0.70;1.00;;;;;;5053049;28;21000;-76
2022/03/04 02:24:00;;;;;;;3.30;2.90;;;0.80;1.00;;;;;;5040933;28;20426;-67
2022/03/04 02:26:26;;;;;;;3.13;2.93;;;0.80;1.00;;;;;;5031900;28;20419;-76
2022/03/04 02:28:52;;;;;;;8.13;3.30;;;0.80;1.00;;;;;;5041020;28;20783;-68
2022/03/04 02:31:20;;;;;;;4.87;3.70;;;0.80;1.00;;;;;;5052067;28;20438;-67
2022/03/04 02:33:46;;;;;;;11.77;3.88;;;0.80;1.00;;;;;;5045430;28;20184;-67
2022/03/04 02:36:13;;;;;;;5.20;3.97;;;0.80;1.00;;;;;;5031872;28;20175;-76
2022/03/04 02:38:39;;;;;;;4.57;3.90;;;0.80;1.00;;;;;;5036555;28;20980;-76
2022/03/04 02:41:05;;;;;;;4.17;3.70;;;0.80;1.00;;;;;;5051651;28;20214;-68
2022/03/04 02:43:31;;;;;;;4.60;4.05;;;0.80;1.00;;;;;;5048606;28;20175;-67
2022/03/04 02:45:57;;;;;;;4.70;4.17;;;0.80;1.00;;;;;;5032915;28;20717;-75
2022/03/04 02:48:22;;;;;;;6.33;3.93;;;0.80;1.00;;;;;;5034910;28;20434;-67
2022/03/04 02:50:48;;;;;;;5.87;4.80;;;0.90;1.00;;;;;;5049985;28;20285;-66
2022/03/04 02:53:13;;;;;;;4.30;3.90;;;0.90;1.00;;;;;;5052081;28;20182;-68
2022/03/04 02:55:39;;;;;;;4.60;3.40;;;0.80;1.00;;;;;;5050966;28;20182;-71
2022/03/04 02:58:05;;;;;;;5.33;3.60;;;0.70;1.00;;;;;;5052816;28;20171;-66
2022/03/04 03:00:31;;;;;;;4.27;3.60;;;0.80;1.00;;;;;;5050037;28;20460;-75
2022/03/04 03:02:57;;;;;;;4.60;3.60;;;0.70;1.00;;;;;;5051753;28;20250;-74
2022/03/04 03:05:23;;;;;;;8.10;3.70;;;0.70;1.00;;;;;;5034591;28;20572;-75
2022/03/04 03:07:48;;;;;;;5.43;3.87;;;0.70;1.00;;;;;;5032492;28;20672;-74
2022/03/04 03:10:14;;;;;;;4.33;3.60;;;0.70;1.00;;;;;;5046258;28;20902;-68
2022/03/04 03:12:41;;;;;;;6.10;4.17;;;0.60;1.00;;;;;;5052636;28;20648;-67
2022/03/04 03:15:08;;;;;;;3.37;3.07;;;0.60;1.00;;;;;;5040808;28;20425;-76
2022/03/04 03:17:34;;;;;;;4.75;4.40;;;0.60;1.00;;;;;;5036699;28;20406;-76
2022/03/04 03:20:00;;;;;;;9.33;3.20;;;0.60;1.00;;;;;;5039009;28;20374;-76
2022/03/04 03:22:26;;;;;;;5.83;3.53;;;0.60;1.00;;;;;;5036672;28;20187;-76
2022/03/04 03:24:52;;;;;;;5.43;3.72;;;0.50;1.00;;;;;;5036219;28;20418;-75
2022/03/04 03:27:18;;;;;;;16.15;3.17;;;0.50;1.00;;;;;;5036099;28;20224;-66
2022/03/04 03:29:43;;;;;;;5.20;4.17;;;0.50;1.00;;;;;;5047609;28;20182;-75
2022/03/04 03:32:10;;;;;;;5.23;3.83;;;0.50;1.00;;;;;;5056300;28;20547;-66
2022/03/04 03:34:36;;;;;;;3.47;3.20;;;0.60;1.00;;;;;;5041423;28;20176;-67
2022/03/04 03:37:02;;;;;;;7.07;2.78;;;0.60;1.00;;;;;;5035114;28;20445;-76
2022/03/04 03:39:28;;;;;;;5.00;2.67;;;0.50;1.00;;;;;;5047065;28;20643;-66
2022/03/04 03:41:54;;;;;;;3.97;3.43;;;0.40;1.00;;;;;;5054877;28;20221;-68
2022/03/04 03:44:20;;;;;;;3.90;3.50;;;0.40;1.00;;;;;;5042796;28;20272;-69
2022/03/04 03:46:45;;;;;;;5.10;3.63;;;0.50;1.00;;;;;;5035828;28;20318;-76
2022/03/04 03:49:11;;;;;;;4.63;3.73;;;0.40;1.00;;;;;;5044425;28;20171;-76
2022/03/04 03:51:37;;;;;;;5.22;3.20;;;0.40;1.00;;;;;;5055978;28;20273;-76
2022/03/04 03:54:03;;;;;;;5.03;3.57;;;0.30;1.00;;;;;;5052877;28;20211;-76
2022/03/04 03:56:29;;;;;;;3.67;3.37;;;0.20;1.00;;;;;;5056013;28;20175;-76
2022/03/04 03:58:54;;;;;;;7.40;4.20;;;0.20;1.00;;;;;;5046506;28;20198;-66
2022/03/04 04:01:20;;;;;;;3.83;3.47;;;0.20;1.00;;;;;;5035402;28;20544;-75
2022/03/04 04:03:46;;;;;;;3.63;2.80;;;0.20;1.00;;;;;;5036109;28;20167;-66
2022/03/04 04:06:11;;;;;;;6.10;3.27;;;0.20;1.00;;;;;;5035745;28;20163;-76
2022/03/04 04:08:37;;;;;;;3.87;2.83;;;0.20;1.00;;;;;;5035081;28;20644;-76
2022/03/04 04:11:03;;;;;;;4.80;2.67;;;0.20;1.00;;;;;;5035760;28;20183;-75
2022/03/04 04:13:29;;;;;;;3.70;2.57;;;0.20;1.00;;;;;;5038437;28;20937;-76
2022/03/04 04:15:54;;;;;;;2.90;2.37;;;0.10;1.00;;;;;;5055621;28;20175;-67
2022/03/04 04:18:20;;;;;;;2.73;2.53;;;0.10;1.00;;;;;;5042675;28;20218;-67
2022/03/04 04:20:45;;;;;;;5.53;3.67;;;0.00;1.00;;;;;;5034185;28;20194;-75
2022/03/04 04:23:11;;;;;;;4.47;3.00;;;-0.10;1.00;;;;;;5045659;28;20175;-76
2022/03/04 04:25:37;;;;;;;4.33;2.57;;;-0.20;1.00;;;;;;5054849;28;20226;-66
2022/03/04 04:28:03;;;;;;;8.50;2.73;;;-0.20;1.00;;;;;;5045922;28;20218;-76
2022/03/04 04:30:30;;;;;;;5.20;3.43;;;-0.20;1.00;;;;;;5034482;28;20171;-67
2022/03/04 04:32:55;;;;;;;3.10;2.80;;;-0.10;1.00;;;;;;5042484;28;20433;-76
2022/03/04 04:35:21;;;;;;;3.93;3.60;;;-0.10;1.00;;;;;;5055149;28;20174;-67
2022/03/04 04:37:47;;;;;;;5.37;2.73;;;-0.20;1.00;;;;;;5049075;28;20647;-67
2022/03/04 04:40:13;;;;;;;6.32;3.42;;;-0.20;1.00;;;;;;5033994;28;20174;-73
2022/03/04 04:42:39;;;;;;;5.70;2.93;;;-0.30;1.00;;;;;;5037241;28;20636;-67
2022/03/04 04:45:05;;;;;;;5.70;3.20;;;-0.30;1.00;;;;;;5035192;28;20167;-76
2022/03/04 04:47:31;;;;;;;3.42;3.22;;;-0.30;1.00;;;;;;5035273;28;20167;-75
2022/03/04 04:49:57;;;;;;;5.97;3.47;;;-0.30;1.00;;;;;;5034117;28;20187;-71
2022/03/04 04:52:22;;;;;;;5.63;3.83;;;-0.30;1.00;;;;;;5039248;28;20195;-76
2022/03/04 04:54:48;;;;;;;7.00;3.67;;;-0.30;1.00;;;;;;5054792;28;20249;-67
2022/03/04 04:57:14;;;;;;;3.73;3.43;;;-0.30;1.00;;;;;;5051634;28;20202;-74
2022/03/04 04:59:39;;;;;;;6.13;3.70;;;-0.20;1.00;;;;;;5033690;28;20490;-73
2022/03/04 05:02:05;;;;;;;8.97;4.00;;;-0.30;1.00;;;;;;5035099;28;20249;-66
2022/03/04 05:04:31;;;;;;;5.10;2.70;;;-0.30;1.00;;;;;;5054710;28;20167;-68
2022/03/04 05:06:57;;;;;;;5.20;3.33;;;-0.40;1.00;;;;;;5054624;28;20192;-66
2022/03/04 05:09:23;;;;;;;5.07;3.30;;;-0.40;1.00;;;;;;5040547;28;20203;-67
2022/03/04 05:11:48;;;;;;;2.90;2.53;;;-0.40;1.00;;;;;;5054360;28;20277;-76
2022/03/04 05:14:14;;;;;;;2.80;2.60;;;-0.40;1.00;;;;;;5053701;28;20216;-66
2022/03/04 05:16:40;;;;;;;3.90;3.60;;;-0.50;1.00;;;;;;5054252;28;20167;-75
2022/03/04 05:19:05;;;;;;;7.57;3.87;;;-0.50;1.00;;;;;;5053018;28;20655;-73
2022/03/04 05:21:31;;;;;;;4.33;2.90;;;-0.40;1.00;;;;;;5033697;28;20191;-66
2022/03/04 05:24:00;;;;;;;4.70;3.90;;;-0.40;1.00;;;;;;5034345;28;20569;-75
2022/03/04 05:26:30;;;;;;;5.70;4.10;;;-0.40;1.00;;;;;;5052674;28;20575;-76
2022/03/04 05:28:57;;;;;;;6.75;3.97;;;-0.50;1.00;;;;;;5053209;28;20584;-75
2022/03/04 05:31:23;;;;;;;4.13;3.83;;;-0.60;1.00;;;;;;5035979;28;20191;-75
2022/03/04 05:33:50;;;;;;;3.42;3.20;;;-0.60;1.00;;;;;;5034165;28;20171;-66
2022/03/04 05:36:16;;;;;;;6.28;2.97;;;-0.60;1.00;;;;;;5049538;28;20513;-74
2022/03/04 05:38:42;;;;;;;4.35;3.47;;;-0.70;1.00;;;;;;5051301;28;20181;-76
2022/03/04 05:41:08;;;;;;;4.37;4.07;;;-0.70;1.00;;;;;;5033941;28;20203;-66
2022/03/04 05:43:33;;;;;;;3.50;3.20;;;-0.70;1.00;;;;;;5033868;28;20170;-75
2022/03/04 05:45:59;;;;;;;5.70;4.27;;;-0.70;1.00;;;;;;5049681;28;20179;-75
2022/03/04 05:48:25;;;;;;;5.20;4.37;;;-0.80;1.00;;;;;;5053639;28;20233;-76
2022/03/04 05:50:51;;;;;;;4.35;3.95;;;-0.80;1.00;;;;;;5036961;28;20463;-76
2022/03/04 05:53:17;;;;;;;4.77;4.20;;;-0.90;1.00;;;;;;5033705;28;20180;-68
2022/03/04 05:55:42;;;;;;;4.93;3.90;;;-1.00;1.00;;;;;;5034898;28;20702;-66
2022/03/04 05:58:08;;;;;;;8.30;4.37;;;-1.00;1.00;;;;;;5032684;28;20168;-66
2022/03/04 06:00:33;;;;;;;6.87;4.13;;;-0.90;1.00;;;;;;5047439;28;20221;-72
2022/03/04 06:02:59;;;;;;;4.00;3.60;;;-0.80;1.00;;;;;;5053323;28;20647;-66
2022/03/04 06:05:25;;;;;;;3.53;3.23;;;-0.80;1.00;;;;;;5051591;28;20181;-67
2022/03/04 06:07:50;;;;;;;4.20;3.47;;;-0.90;1.00;;;;;;5053545;28;20170;-69
2022/03/04 06:10:16;;;;;;;8.30;4.03;;;-0.80;1.00;;;;;;5050699;28;20261;-66
2022/03/04 06:12:42;;;;;;;4.70;3.63;;;-0.80;1.00;;;;;;5053238;28;20198;-66
2022/03/04 06:15:08;;;;;;;4.70;4.30;;;-0.80;1.00;;;;;;5040089;28;20234;-76
2022/03/04 06:17:34;;;;;;;4.18;3.55;;;-0.80;1.00;;;;;;5040210;28;20536;-67
2022/03/04 06:20:00;;;;;;;8.63;3.50;;;-0.80;1.00;;;;;;5050781;28;20197;-75
2022/03/04 06:22:26;;;;;;;5.07;4.40;;;-1.00;1.00;;;;;;5045854;28;20193;-67
2022/03/04 06:24:52;;;;;;;3.72;3.00;;;-0.90;1.00;;;;;;5031807;28;20501;-66
2022/03/04 06:27:17;;;;;;;5.97;4.03;;;-0.80;1.00;;;;;;5036724;28;20317;-75
2022/03/04 06:29:43;;;;;;;7.00;3.73;;;-0.80;1.00;;;;;;5052421;28;20170;-66
2022/03/04 06:32:09;;;;;;;4.40;3.30;;;-0.70;1.00;;;;;;5049739;28;20194;-67
2022/03/04 06:34:35;;;;;;;7.88;5.68;;;-0.70;1.00;;;;;;5033168;28;20168;-73
2022/03/04 06:37:01;;;;;;;4.83;3.57;;;-0.90;1.00;;;;;;5032116;28;20310;-73
2022/03/04 06:39:27;;;;;;;6.13;4.33;;;-1.00;1.00;;;;;;5051892;28;20413;-66
2022/03/04 06:41:53;;;;;;;4.93;2.83;;;-1.00;1.00;;;;;;5052870;28;20198;-72
2022/03/04 06:44:18;;;;;;;9.18;4.00;;;-0.80;1.00;;;;;;5032986;28;20432;-75
2022/03/04 06:46:44;;;;;;;13.23;6.37;;;-0.80;1.00;;;;;;5032979;28;20171;-75
2022/03/04 06:49:11;;;;;;;5.87;4.40;;;-0.70;1.00;;;;;;5048800;28;20178;-69
2022/03/04 06:51:38;;;;;;;4.78;4.10;;;-1.10;1.00;;;;;;5052250;28;20295;-68
2022/03/04 06:54:04;;;;;;;5.15;4.22;;;-1.00;1.00;;;;;;5032633;28;20659;-65
2022/03/04 06:56:30;;;;;;;5.37;4.23;;;-0.80;1.00;;;;;;5033050;28;20172;-65
2022/03/04 06:58:56;;;;;;;4.47;4.07;;;-0.70;1.00;;;;;;5049505;28;20277;-72
2022/03/04 07:01:21;;;;;;;6.80;3.57;;;-0.70;1.00;;;;;;5052316;28;20468;-73
2022/03/04 07:03:48;;;;;;;4.90;4.40;;;-0.80;1.00;;;;;;5036542;28;20427;-74
2022/03/04 07:06:13;;;;;;;9.20;5.55;;;-1.00;1.00;;;;;;5032786;28;20434;-73
2022/03/04 07:08:39;;;;;;;6.40;5.60;;;-1.00;1.00;;;;;;5033722;28;20199;-73
2022/03/04 07:11:05;;;;;;;6.10;5.10;;;-0.90;1.00;;;;;;5032614;28;20204;-67
2022/03/04 07:13:31;;;;;;;7.70;4.97;;;-0.70;1.00;;;;;;5032123;28;20238;-66
2022/03/04 07:15:57;;;;;;;6.47;4.70;;;-0.50;1.00;;;;;;5042697;28;20639;-74
2022/03/04 07:18:29;;;;;;;5.43;4.03;;;-0.40;1.00;;;;;;5037381;28;20660;-74
2022/03/04 07:20:56;;;;;;;17.00;4.65;;;-0.30;1.00;;;;;;5032250;28;20464;-72
2022/03/04 07:23:22;;;;;;;6.53;5.75;;;-0.30;1.00;;;;;;5046450;28;20182;-65
2022/03/04 07:25:48;;;;;;;5.47;4.90;;;-0.30;1.00;;;;;;5052529;28;20175;-66
2022/03/04 07:28:15;;;;;;;7.37;5.80;;;-0.30;1.00;;;;;;5039936;28;20409;-65
2022/03/04 07:30:41;;;;;;;5.25;4.25;;;-0.30;1.00;;;;;;5030820;28;20180;-73
2022/03/04 07:33:06;;;;;;;5.40;4.88;;;-0.20;1.00;;;;;;5043272;28;20171;-74
2022/03/04 07:35:32;;;;;;;7.90;5.60;;;-0.30;1.00;;;;;;5050738;28;20636;-74
2022/03/04 07:37:58;;;;;;;6.23;4.90;;;-0.20;1.00;;;;;;5047282;28;20178;-66
2022/03/04 07:40:23;;;;;;;7.30;6.40;;;-0.10;1.00;;;;;;5046363;28;20257;-74
2022/03/04 07:42:49;;;;;;;7.73;4.40;;;-0.10;1.00;;;;;;5049649;28;20194;-74
2022/03/04 07:45:15;;;;;;;5.70;5.10;;;-0.20;1.00;;;;;;5044916;28;20701;-68
2022/03/04 07:47:42;;;;;;;8.37;5.70;;;-0.20;1.00;;;;;;5045210;28;20420;-74
2022/03/04 07:50:13;;;;;;;8.70;5.35;;;-0.10;1.00;;;;;;5030706;28;20239;-74
2022/03/04 07:52:40;;;;;;;6.25;4.28;;;0.00;1.00;;;;;;5047720;28;20209;-74
2022/03/04 07:55:08;;;;;;;9.43;6.05;;;0.00;1.00;;;;;;5037555;28;20175;-71
2022/03/04 07:57:34;;;;;;;9.30;5.90;;;-0.20;1.00;;;;;;5045241;28;20175;-67
2022/03/04 08:00:00;;;;;;;5.37;4.87;;;-0.20;1.00;;;;;;5048168;28;20187;-66
2022/03/04 08:02:26;;;;;;;14.33;6.00;;;-0.30;1.00;;;;;;5054201;28;21016;-72
2022/03/04 08:04:51;;;;;;;6.37;5.80;;;-0.20;1.00;;;;;;5049137;28;20441;-74
2022/03/04 08:07:18;;;;;;;8.73;5.87;;;-0.20;1.00;;;;;;5044673;28;20183;-74
2022/03/04 08:09:44;;;;;;;5.70;4.97;;;-0.20;1.00;;;;;;5038260;28;20235;-67
2022/03/04 08:12:11;;;;;;;7.63;5.73;;;0.00;1.00;;;;;;5052673;28;20219;-66
2022/03/04 08:14:38;;;;;;;16.70;5.60;;;0.10;1.00;;;;;;5054198;28;20402;-67
2022/03/04 08:17:04;;;;;;;7.35;5.90;;;0.10;1.00;;;;;;5054766;28;20182;-67
2022/03/04 08:19:30;;;;;;;7.22;5.85;;;0.30;1.00;;;;;;5041070;28;20191;-73
2022/03/04 08:21:56;;;;;;;9.10;5.70;;;0.50;1.00;;;;;;5046056;28;20602;-66
2022/03/04 08:24:22;;;;;;;9.40;7.70;;;0.80;1.00;;;;;;5046241;28;20437;-67
2022/03/04 08:26:47;;;;;;;13.70;7.07;;;0.90;1.00;;;;;;5043741;28;20779;-67
2022/03/04 08:29:14;;;;;;;11.43;6.33;;;1.00;1.00;;;;;;5048996;28;20182;-69
2022/03/04 08:31:40;;;;;;;13.80;6.20;;;1.00;1.00;;;;;;5053330;28;20249;-64
2022/03/04 08:34:06;;;;;;;6.90;6.03;;;1.10;1.00;;;;;;5049357;28;20937;-64
2022/03/04 08:36:32;;;;;;;7.57;6.78;;;1.20;1.00;;;;;;5053364;28;20194;-72
2022/03/04 08:39:02;;;;;;;15.07;7.77;;;1.20;1.00;;;;;;5052293;28;20258;-67
2022/03/04 08:41:29;;;;;;;11.53;7.20;;;1.30;1.00;;;;;;5051259;28;20233;-67
2022/03/04 08:43:54;;;;;;;8.13;6.80;;;1.40;1.00;;;;;;5037866;28;20437;-67
2022/03/04 08:46:21;;;;;;;9.30;6.40;;;1.50;1.00;;;;;;5038281;28;20422;-66
2022/03/04 08:48:47;;;;;;;9.00;7.27;;;1.50;1.00;;;;;;5053131;28;20627;-71
2022/03/04 08:51:13;;;;;;;12.20;7.40;;;1.50;1.00;;;;;;5054914;28;20486;-72
2022/03/04 08:53:40;;;;;;;9.18;6.00;;;1.60;1.00;;;;;;5055020;28;20559;-63
2022/03/04 08:56:06;;;;;;;7.27;6.50;;;1.60;1.00;;;;;;5053401;28;20255;-63
2022/03/04 08:58:32;;;;;;;14.57;5.87;;;1.80;1.00;;;;;;5053944;28;20167;-70
2022/03/04 09:00:57;;;;;;;11.40;7.00;;;1.90;1.00;;;;;;5049792;28;20457;-72
2022/03/04 09:03:23;;;;;;;10.00;7.80;;;2.00;1.00;;;;;;5046586;28;20898;-72
2022/03/04 09:05:49;;;;;;;12.10;7.37;;;2.10;1.00;;;;;;5053213;28;20217;-70
2022/03/04 09:08:14;;;;;;;11.17;7.47;;;2.10;1.00;;;;;;5041253;28;20171;-64
2022/03/04 09:10:40;;;;;;;12.90;8.33;;;2.20;1.00;;;;;;5035904;28;20171;-64
2022/03/04 09:13:06;;;;;;;14.90;8.67;;;2.30;1.00;;;;;;5037080;28;20175;-72
2022/03/04 09:15:32;;;;;;;12.43;7.10;;;2.40;1.00;;;;;;5054270;28;20170;-63
2022/03/04 09:17:58;;;;;;;11.07;7.43;;;2.30;1.00;;;;;;5040357;28;20202;-64
2022/03/04 09:20:24;;;;;;;13.70;8.73;;;2.40;1.00;;;;;;5038636;28;20430;-64
2022/03/04 09:22:51;;;;;;;9.77;5.83;;;2.40;1.00;;;;;;5035177;28;20512;-64
2022/03/04 09:25:17;;;;;;;11.07;7.73;;;2.40;1.00;;;;;;5047664;28;20164;-72
2022/03/04 09:27:43;;;;;;;9.20;6.33;;;2.40;1.00;;;;;;5049134;28;20524;-65
2022/03/04 09:30:11;;;;;;;8.60;7.47;;;2.70;1.00;;;;;;5051150;28;20471;-71
2022/03/04 09:32:37;;;;;;;13.07;6.90;;;3.00;1.00;;;;;;5033811;28;20425;-64
2022/03/04 09:35:04;;;;;;;9.10;7.40;;;3.10;1.00;;;;;;5037362;28;20422;-72
2022/03/04 09:37:30;;;;;;;12.53;7.60;;;3.10;1.00;;;;;;5053272;28;20532;-63
2022/03/04 09:39:55;;;;;;;11.60;5.70;;;3.20;1.00;;;;;;5049949;28;20420;-64
2022/03/04 09:42:22;;;;;;;12.60;7.30;;;3.30;1.00;;;;;;5033485;28;20211;-65
2022/03/04 09:44:48;;;;;;;11.97;6.40;;;3.40;1.00;;;;;;5033452;28;20168;-65
2022/03/04 09:47:20;;;;;;;8.07;6.07;;;3.50;1.00;;;;;;5035249;28;20414;-64
2022/03/04 09:49:48;;;;;;;8.63;5.87;;;3.50;1.00;;;;;;5032930;28;20437;-72
2022/03/04 09:52:14;;;;;;;10.37;5.50;;;3.50;1.00;;;;;;5053525;28;20448;-63
2022/03/04 09:54:40;;;;;;;9.03;6.40;;;3.50;1.00;;;;;;5051278;28;20425;-71
2022/03/04 09:57:05;;;;;;;13.57;8.00;;;3.40;1.00;;;;;;5033879;28;20333;-65
2022/03/04 09:59:31;;;;;;;9.97;7.50;;;3.40;1.00;;;;;;5032844;28;20267;-65
2022/03/04 10:01:58;;;;;;;5.80;5.20;;;3.40;1.00;;;;;;5052604;28;20203;-72
2022/03/04 10:04:27;;;;;;;5.30;4.77;;;3.40;1.00;;;;;;5053649;28;20162;-71
2022/03/04 10:06:53;;;;;;;6.37;4.70;;;3.40;1.00;;;;;;5047139;28;20432;-63
2022/03/04 10:09:35;;;;;;;11.60;4.67;;;3.50;1.00;;;;;;5050528;28;20421;-64
2022/03/04 10:12:05;;;;;;;8.00;3.63;;;3.30;1.00;;;;;;5033394;28;20210;-65
2022/03/04 10:14:30;;;;;;;4.93;4.50;;;3.30;1.00;;;;;;5035254;28;20394;-65
2022/03/04 10:16:57;;;;;;;4.03;3.33;;;3.50;1.00;;;;;;5052464;28;20910;-70
2022/03/04 10:19:23;;;;;;;3.83;3.47;;;3.50;1.00;;;;;;5034386;28;20272;-64
2022/03/04 10:21:56;;;;;;;5.73;3.57;;;3.40;1.00;;;;;;5033214;28;20458;-68
2022/03/04 10:24:33;;;;;;;5.00;4.17;;;3.40;1.00;;;;;;5043743;28;20505;-67
2022/03/04 10:27:13;;;;;;;4.23;3.70;;;3.60;1.00;;;;;;5047965;28;20802;-64
2022/03/04 10:29:41;;;;;;;4.03;3.73;;;3.60;1.00;;;;;;5035196;28;20919;-72
2022/03/04 10:32:07;;;;;;;5.40;4.90;;;3.60;1.00;;;;;;5033171;28;20426;-71
2022/03/04 10:34:45;;;;;;;4.00;3.60;;;3.70;99.90;;;;;;5049113;28;20448;-65
2022/03/04 10:37:12;;;;;;;5.97;4.80;;;3.60;99.90;;;;;;5052013;28;20651;-72
2022/03/04 10:40:00;;;;;;;5.07;4.60;;;3.80;1.00;;;;;;5051005;28;20433;-71
2022/03/04 10:42:58;;;;;;;5.30;4.13;;;3.90;1.00;;;;;;5052814;28;20993;-70
2022/03/04 10:45:53;;;;;;;8.03;3.60;;;4.00;1.00;;;;;;5032963;28;20468;-64
2022/03/04 10:48:19;;;;;;;11.27;4.60;;;4.20;99.90;;;;;;5040423;28;20431;-65
2022/03/04 10:50:46;;;;;;;5.27;4.20;;;4.40;99.90;;;;;;5031988;28;20448;-71
2022/03/04 10:53:20;;;;;;;6.33;3.43;;;4.30;99.90;;;;;;5036327;28;20509;-71
2022/03/04 10:55:47;;;;;;;4.83;3.40;;;4.40;99.90;;;;;;5051472;28;20504;-66
2022/03/04 10:58:22;;;;;;;4.13;3.33;;;4.40;99.90;;;;;;5049529;28;20802;-71
2022/03/04 11:00:50;;;;;;;4.63;3.53;;;4.40;99.90;;;;;;5032009;28;20480;-71
2022/03/04 11:03:20;;;;;;;4.90;3.90;;;4.40;99.90;;;;;;5035650;28;20425;-71
2022/03/04 11:05:47;;;;;;;3.80;3.50;;;4.50;99.90;;;;;;5051884;28;20543;-71
2022/03/04 11:08:14;;;;;;;6.07;4.53;;;4.80;99.90;;;;;;5046649;28;20407;-65
2022/03/04 11:10:40;;;;;;;13.63;4.43;;;5.00;99.90;;;;;;5031896;28;20898;-71
2022/03/04 11:13:08;;;;;;;6.23;4.00;;;5.20;99.90;;;;;;5036513;28;20555;-73
2022/03/04 11:15:35;;;;;;;4.63;3.40;;;5.30;99.90;;;;;;5052477;28;20771;-65
2022/03/04 11:18:03;;;;;;;9.93;4.27;;;5.40;99.90;;;;;;5048272;28;20422;-65
2022/03/04 11:20:29;;;;;;;4.20;3.60;;;5.40;99.90;;;;;;5031702;28;20878;-66
2022/03/04 11:22:55;;;;;;;5.40;3.90;;;5.30;99.90;;;;;;5036091;28;20438;-73
2022/03/04 11:25:24;;;;;;;4.60;4.03;;;5.20;99.90;;;;;;5052537;28;20250;-67
2022/03/04 11:27:53;;;;;;;6.03;4.57;;;5.20;99.90;;;;;;5050117;28;20744;-68
2022/03/04 11:30:39;;;;;;;4.50;4.17;;;5.30;99.90;;;;;;5051799;28;20405;-73
2022/03/04 11:33:20;;;;;;;4.10;3.80;;;5.40;99.90;;;;;;5043482;28;20420;-66
2022/03/04 11:35:52;;;;;;;5.50;4.27;;;5.40;99.90;;;;;;5033780;28;20413;-65
2022/03/04 11:38:43;;;;;;;6.80;4.77;;;5.30;99.90;;;;;;5045742;28;20804;-72
2022/03/04 11:41:10;;;;;;;5.60;4.43;;;5.30;99.90;;;;;;5056035;28;20538;-65
2022/03/04 11:43:51;;;;;;;5.70;4.87;;;5.40;99.90;;;;;;5044551;28;20425;-71
2022/03/04 11:46:29;;;;;;;4.23;3.83;;;5.50;99.90;;;;;;5036542;28;20433;-65
2022/03/04 11:49:33;;;;;;;5.27;3.73;;;5.70;99.90;;;;;;5048601;28;20905;-73
2022/03/04 11:52:20;;;;;;;5.70;3.90;;;6.10;99.90;;;;;;5055892;28;20472;-73
2022/03/04 11:54:51;;;;;;;5.60;4.93;;;6.60;99.90;;;;;;5036029;28;20918;-73
2022/03/04 11:57:19;;;;;;;11.20;5.17;;;6.80;99.90;;;;;;5036180;28;20429;-72
2022/03/04 12:00:14;;;;;;;4.83;4.27;;;6.80;99.90;;;;;;5053990;28;20996;-68
2022/03/04 12:02:42;;;;;;;6.40;3.90;;;6.80;99.90;;;;;;5045029;28;20983;-65
2022/03/04 12:05:33;;;;;;;5.63;3.87;;;6.70;99.90;;;;;;5034469;28;20410;-66
2022/03/04 12:07:59;;;;;;;4.60;4.20;;;6.70;99.90;;;;;;5037041;28;20420;-73
2022/03/04 12:10:37;;;;;;;7.30;5.00;;;6.80;99.90;;;;;;5034387;28;20395;-66
2022/03/04 12:13:20;;;;;;;5.33;4.83;;;7.20;99.90;;;;;;5039110;28;20634;-73
2022/03/04 12:16:03;;;;;;;8.90;4.70;;;7.40;99.90;;;;;;5054820;28;20425;-66
2022/03/04 12:18:34;;;;;;;8.37;3.90;;;7.40;99.90;;;;;;5038001;28;20497;-74
2022/03/04 12:21:03;;;;;;;4.50;3.60;;;7.30;99.90;;;;;;5035470;28;20974;-73
2022/03/04 12:23:37;;;;;;;4.63;4.23;;;7.40;99.90;;;;;;5051925;28;20413;-68
2022/03/04 12:26:04;;;;;;;5.00;4.17;;;7.70;99.90;;;;;;5055079;28;20847;-68
2022/03/04 12:28:34;;;;;;;7.47;4.73;;;7.80;98.90;;;;;;5038499;28;20441;-75
2022/03/04 12:31:03;;;;;;;3.93;3.53;;;7.90;80.00;;;;;;5035510;28;20513;-68
2022/03/04 12:33:40;;;;;;;5.73;3.87;;;8.00;75.30;;;;;;5050564;28;20413;-69
2022/03/04 12:36:08;;;;;;;5.00;4.07;;;8.30;72.20;;;;;;5053077;28;20529;-68
2022/03/04 12:38:46;;;;;;;7.30;4.60;;;8.40;33.30;;;;;;5034738;28;20426;-76
2022/03/04 12:41:16;;;;;;;4.97;4.37;;;8.50;16.80;;;;;;5035174;28;20463;-76
2022/03/04 12:43:56;;;;;;;5.83;3.97;;;8.80;9.70;;;;;;5052535;28;20768;-76
2022/03/04 12:46:27;;;;;;;3.70;3.40;;;9.40;1.00;;;;;;5054178;28;20398;-75
2022/03/04 12:48:55;;;;;;;4.07;3.57;;;10.10;1.00;;;;;;5034300;28;20415;-76
2022/03/04 12:51:24;;;;;;;3.83;3.40;;;10.70;1.00;;;;;;5042000;28;21039;-68
2022/03/04 12:53:50;;;;;;;4.03;3.10;;;11.80;1.00;;;;;;5049030;28;20442;-76
2022/03/04 12:56:18;;;;;;;3.87;3.20;;;12.50;1.00;;;;;;5054842;28;20444;-76
2022/03/04 12:58:47;;;;;;;3.90;3.50;;;12.80;1.00;;;;;;5035259;28;20418;-77
2022/03/04 13:01:15;;;;;;;4.87;3.63;;;13.90;1.00;;;;;;5034861;28;20472;-77
2022/03/04 13:03:46;;;;;;;4.23;3.23;;;15.00;1.00;;;;;;5050191;28;20410;-72